Flight Track Log - Related Links

Times and Time Zones

All times are in EDT time to prevent confusion due to time zone crossing. See the AWE85 flight status page for this flight to view local times or setup timezone preferences in your user account.

Time Position Orientation Groundspeed Altitude Reporting Facility
EDT Latitude Longitude Course Direction KTS MPH feet Rate Location/Type
Sun 06:18:55 PM 33.4333 -112.0333 67° East 182 209 1,900  Level Phoenix TRACON
Sun 06:19:19 PM 33.4333 -112.0667 270° West 170 196 2,800 1,200 Climbing Phoenix TRACON
Sun 06:20:25 PM 33.4333 -112.1333 270° West 222 255 3,700 1,461 Climbing Phoenix TRACON
Sun 06:21:00 PM 33.5777 -111.5989 69° East  Level FlightAware
Sun 06:21:14 PM 33.4483 -112.1875 288° West 235 270 5,600  Level Albuquerque Center
Sun 06:22:00 PM 33.6214 -111.4619 69° East  Level FlightAware
Sun 06:22:16 PM 33.5178 -112.1839 North 261 300 7,800  Level Albuquerque Center
Sun 06:23:00 PM 33.6650 -111.3247 69° East  Level FlightAware
Sun 06:23:17 PM 33.5914 -112.1614 14° North 273 314 10,000  Level Albuquerque Center
Sun 06:24:00 PM 33.7108 -111.1885 67° East  Level FlightAware
Sun 06:24:19 PM 33.6422 -112.0892 50° Northeast 323 372 11,500  Level Albuquerque Center
Sun 06:25:21 PM 33.6428 -111.9728 90° East 352 405 12,900 1,854 Climbing Albuquerque Center
Sun 06:26:22 PM 33.6517 -111.8478 85° East 377 434 15,300 2,146 Climbing Albuquerque Center
Sun 06:27:24 PM 33.6622 -111.6933 85° East 393 452 17,300 1,742 Climbing Albuquerque Center
Sun 06:28:26 PM 33.6703 -111.5586 86° East 406 467 18,900 1,561 Climbing Albuquerque Center
Sun 06:29:27 PM 33.6786 -111.4178 86° East 423 487 20,500 1,366 Climbing Albuquerque Center
Sun 06:30:29 PM 33.6883 -111.2706 85° East 443 510 21,700 1,210 Climbing Albuquerque Center
Sun 06:31:31 PM 33.7375 -111.1297 67° East 458 527 23,000 1,317 Climbing Albuquerque Center
Sun 06:32:32 PM 33.7983 -110.9564 67° East 470 541 24,400 1,366 Climbing Albuquerque Center
Sun 06:33:34 PM 33.8514 -110.8072 67° East 481 554 25,800 1,210 Climbing Albuquerque Center
Sun 06:34:36 PM 33.9050 -110.6564 67° East 488 562 26,900 1,073 Climbing Albuquerque Center
Sun 06:35:37 PM 33.9572 -110.5025 68° East 495 570 28,000 1,073 Climbing Albuquerque Center
Sun 06:36:39 PM 34.0194 -110.3300 66° East 508 585 29,100 1,073 Climbing Albuquerque Center
Sun 06:37:40 PM 34.0739 -110.1686 68° East 518 596 30,200 1,268 Climbing Albuquerque Center
Sun 06:38:42 PM 34.1328 -110.0008 67° East 518 596 31,700 1,258 Climbing Albuquerque Center
Sun 06:39:44 PM 34.1850 -109.8486 67° East 516 594 32,800 1,122 Climbing Albuquerque Center
Sun 06:40:45 PM 34.2453 -109.6700 68° East 515 593 34,000 1,024 Climbing Albuquerque Center
Sun 06:41:47 PM 34.2978 -109.5183 67° East 513 590 34,900 488 Climbing Albuquerque Center
Sun 06:42:48 PM 34.3581 -109.3392 68° East 514 592 35,000 49 Climbing Albuquerque Center
Sun 06:43:50 PM 34.4097 -109.1872 68° East 513 590 35,000  Level Albuquerque Center
Sun 06:44:51 PM 34.4558 -109.0314 70° East 514 592 35,000 49 Level Albuquerque Center
Sun 06:45:53 PM 34.5200 -108.8550 66° East 514 592 35,100  Climbing Albuquerque Center
Sun 06:46:55 PM 34.5864 -108.7122 61° Northeast 511 588 35,000 -49 Descending Albuquerque Center
Sun 06:47:56 PM 34.6622 -108.5511 60° Northeast 500 575 35,000  Level Albuquerque Center
Sun 06:48:58 PM 34.7231 -108.4197 61° Northeast 498 573 35,000 -49 Level Albuquerque Center
Sun 06:49:59 PM 34.7922 -108.2719 60° Northeast 501 577 34,900  Descending Albuquerque Center
Sun 06:51:01 PM 34.8689 -108.1050 61° Northeast 501 577 35,000 49 Climbing Albuquerque Center
Sun 06:52:02 PM 34.9344 -107.9628 61° Northeast 502 578 35,000  Level Albuquerque Center
Sun 06:53:03 PM 35.0106 -107.7956 61° Northeast 502 578 35,000  Level Albuquerque Center
Sun 06:54:05 PM 35.0847 -107.6494 58° Northeast 506 582 35,000  Level Albuquerque Center
Sun 06:55:06 PM 35.1775 -107.5078 51° Northeast 505 581 35,000  Level Albuquerque Center
Sun 06:56:08 PM 35.2625 -107.3811 51° Northeast 505 581 35,000  Level Albuquerque Center
Sun 06:57:09 PM 35.3508 -107.2453 51° Northeast 505 581 35,000  Level Albuquerque Center
Sun 06:58:11 PM 35.4403 -107.1097 51° Northeast 505 581 35,000  Level Albuquerque Center
Sun 06:59:12 PM 35.5278 -106.9736 52° Northeast 504 580 35,000  Level Albuquerque Center
Sun 07:00:13 PM 35.6142 -106.8400 51° Northeast 500 575 35,000  Level Albuquerque Center
Sun 07:01:15 PM 35.7061 -106.6986 51° Northeast 497 572 35,000  Level Albuquerque Center
Sun 07:02:16 PM 35.8022 -106.5517 51° Northeast 495 570 35,000  Level Albuquerque Center
Sun 07:03:18 PM 35.8858 -106.4261 51° Northeast 495 570 35,000  Level Albuquerque Center
Sun 07:04:19 PM 35.9628 -106.3100 51° Northeast 496 571 35,000  Level Albuquerque Center
Sun 07:05:21 PM 36.0653 -106.1475 52° Northeast 498 573 35,000  Level Albuquerque Center
Sun 07:06:22 PM 36.1525 -106.0125 51° Northeast 501 577 35,000  Level Albuquerque Center
Sun 07:07:23 PM 36.2417 -105.8817 50° Northeast 498 573 35,000  Level Albuquerque Center
Sun 07:08:25 PM 36.3253 -105.7419 53° Northeast 502 578 35,000  Level Albuquerque Center
Sun 07:09:26 PM 36.4119 -105.6083 51° Northeast 500 575 35,000  Level Albuquerque Center
Sun 07:10:28 PM 36.4908 -105.4547 57° Northeast 501 577 35,000  Level Albuquerque Center
Sun 07:11:29 PM 36.5539 -105.3072 62° Northeast 506 582 35,000  Level Albuquerque Center
Sun 07:12:31 PM 36.6247 -105.1356 63° Northeast 503 579 35,000  Level Albuquerque Center
Sun 07:13:32 PM 36.6897 -104.9819 62° Northeast 499 574 35,000  Level Albuquerque Center
Sun 07:14:09 PM 36.7261 -104.8906 64° Northeast 500 575 35,000  Level Albuquerque Center
Sun 07:15:11 PM 36.7981 -104.7211 62° Northeast 496 571 35,000  Level Albuquerque Center
Sun 07:16:12 PM 36.8572 -104.5750 63° Northeast 495 570 35,000  Level Albuquerque Center
Sun 07:16:48 PM 36.8942 -104.4758 65° Northeast 494 568 35,000  Level Denver Center
Sun 07:17:13 PM 36.9125 -104.4269 65° Northeast 493 567 35,000  Level Denver Center
Sun 07:17:50 PM 36.9453 -104.3253 68° East 494 568 35,000  Level Denver Center
Sun 07:18:15 PM 36.9703 -104.2500 67° East 493 567 35,000  Level Albuquerque Center
Sun 07:19:16 PM 37.0208 -104.0969 67° East 497 572 35,000 49 Level Albuquerque Center
Sun 07:20:18 PM 37.0800 -103.9208 67° East 496 571 35,100  Climbing Albuquerque Center
Sun 07:21:19 PM 37.1247 -103.7667 70° East 495 570 35,000 -61 Descending Albuquerque Center
Sun 07:21:57 PM 37.1442 -103.6881 73° East 498 573 35,000  Level Denver Center
Sun 07:22:21 PM 37.1739 -103.5853 70° East 496 571 35,000  Level Albuquerque Center
Sun 07:23:22 PM 37.2167 -103.4294 71° East 497 572 35,000 -49 Level Albuquerque Center
Sun 07:24:24 PM 37.2667 -103.2475 71° East 496 571 34,900  Descending Albuquerque Center
Sun 07:25:25 PM 37.3092 -103.0936 71° East 492 566 35,000 49 Climbing Albuquerque Center
Sun 07:26:27 PM 37.3467 -102.9456 72° East 470 541 35,000  Level Albuquerque Center
Sun 07:27:28 PM 37.3958 -102.7689 71° East 478 550 35,000  Level Albuquerque Center
Sun 07:28:30 PM 37.4364 -102.6164 71° East 482 555 35,000  Level Albuquerque Center
Sun 07:28:56 PM 37.4547 -102.5436 72° East 481 554 35,000  Level Kansas Center
Sun 07:29:59 PM 37.4933 -102.3925 72° East 477 549 35,000  Level Kansas Center
Sun 07:31:01 PM 37.5403 -102.2164 71° East 476 548 35,000  Level Kansas Center
Sun 07:32:01 PM 37.5792 -102.0675 72° East 469 540 35,000  Level Kansas Center
Sun 07:33:04 PM 37.6236 -101.8919 72° East 470 541 35,000  Level Kansas Center
Sun 07:34:06 PM 37.6628 -101.7414 72° East 471 542 35,000  Level Kansas Center
Sun 07:35:09 PM 37.7086 -101.5636 72° East 476 548 35,000 48 Level Kansas Center
Sun 07:36:10 PM 37.7486 -101.4069 72° East 483 556 35,100  Climbing Kansas Center
Sun 07:37:12 PM 37.7944 -101.2236 72° East 488 562 35,000 -49 Descending Kansas Center
Sun 07:38:12 PM 37.8347 -101.0661 72° East 488 562 35,000  Level Kansas Center
Sun 07:39:17 PM 37.8756 -100.9075 72° East 488 562 35,000  Level Kansas Center
Sun 07:40:17 PM 37.9200 -100.7242 73° East 484 557 35,000  Level Kansas Center
Sun 07:41:20 PM 37.9514 -100.5703 75° East 473 544 35,000 98 Level Kansas Center
Sun 07:42:20 PM 37.9847 -100.4111 75° East 483 556 35,200 787 Climbing Kansas Center
Sun 07:43:22 PM 38.0222 -100.2236 76° East 489 563 36,600 857 Climbing Kansas Center
Sun 07:44:26 PM 38.0547 -100.0633 76° East 490 564 37,000 192 Climbing Kansas Center
Sun 07:45:27 PM 38.0933 -99.8714 76° East 499 574 37,000  Level Kansas Center
Sun 07:46:28 PM 38.1267 -99.7061 76° East 503 579 37,000 49 Level Kansas Center
Sun 07:47:30 PM 38.1653 -99.5111 76° East 508 585 37,100 48 Climbing Kansas Center
Sun 07:48:33 PM 38.1986 -99.3381 76° East 512 589 37,100  Level Kansas Center
Sun 07:49:33 PM 38.2331 -99.1633 76° East 510 587 37,100 -48 Level Kansas Center
Sun 07:50:37 PM 38.2683 -98.9886 76° East 507 583 37,000 -48 Descending Kansas Center
Sun 07:51:37 PM 38.3017 -98.8153 76° East 504 580 37,000  Level Kansas Center
Sun 07:52:39 PM 38.3347 -98.6428 76° East 499 574 37,000  Level Kansas Center
Sun 07:53:42 PM 38.3672 -98.4722 76° East 493 567 37,000  Level Kansas Center
Sun 07:54:43 PM 38.3992 -98.3006 77° East 493 567 37,000  Level Kansas Center
Sun 07:55:46 PM 38.4322 -98.1275 76° East 498 573 37,000  Level Kansas Center
Sun 07:56:48 PM 38.4708 -97.9189 77° East 499 574 37,000  Level Kansas Center
Sun 07:57:49 PM 38.5025 -97.7439 77° East 499 574 37,000  Level Kansas Center
Sun 07:58:50 PM 38.5336 -97.5689 77° East 501 577 37,000  Level Kansas Center
Sun 07:59:51 PM 38.5650 -97.3936 77° East 503 579 37,000  Level Kansas Center
Sun 08:00:54 PM 38.5964 -97.2178 77° East 503 579 37,000  Level Kansas Center
Sun 08:01:57 PM 38.6261 -97.0431 78° East 501 577 37,000  Level Kansas Center
Sun 08:02:58 PM 38.6575 -96.8661 77° East 506 582 37,000  Level Kansas Center
Sun 08:03:59 PM 38.6919 -96.6606 78° East 506 582 37,000  Level Kansas Center
Sun 08:05:02 PM 38.7203 -96.4911 78° East 509 586 37,000  Level Kansas Center
Sun 08:06:03 PM 38.7497 -96.3206 77° East 512 589 37,000  Level Kansas Center
Sun 08:07:06 PM 38.7825 -96.1222 78° East 510 587 37,000  Level Kansas Center
Sun 08:08:07 PM 38.8097 -95.9511 78° East 511 588 37,000  Level Kansas Center
Sun 08:09:08 PM 38.8425 -95.7508 78° East 515 593 37,000  Level Kansas Center
Sun 08:10:12 PM 38.8711 -95.5800 78° East 514 592 37,000  Level Kansas Center
Sun 08:11:13 PM 38.9028 -95.3811 78° East 514 592 37,000  Level Kansas Center
Sun 08:12:15 PM 38.9294 -95.2114 79° East 512 589 37,000  Level Kansas Center
Sun 08:13:15 PM 38.9606 -95.0128 79° East 514 592 37,000  Level Kansas Center
Sun 08:14:17 PM 38.9869 -94.8419 79° East 515 593 37,000  Level Kansas Center
Sun 08:15:20 PM 39.0181 -94.6408 79° East 515 593 37,000  Level Kansas Center
Sun 08:16:22 PM 39.0447 -94.4686 79° East 516 594 37,000  Level Kansas Center
Sun 08:17:23 PM 39.0739 -94.2667 79° East 515 593 37,000  Level Kansas Center
Sun 08:18:24 PM 39.1003 -94.0919 79° East 520 598 37,000  Level Kansas Center
Sun 08:19:27 PM 39.1258 -93.8856 81° East 523 602 37,000  Level Kansas Center
Sun 08:20:29 PM 39.1472 -93.7081 81° East 524 603 37,000  Level Kansas Center
Sun 08:21:29 PM 39.1692 -93.5306 81° East 525 604 37,000  Level Kansas Center
Sun 08:22:33 PM 39.1961 -93.3211 81° East 527 606 37,000  Level Kansas Center
Sun 08:23:33 PM 39.2169 -93.1367 82° East 529 609 37,000  Level Kansas Center
Sun 08:24:37 PM 39.2389 -92.9528 81° East 526 605 37,000  Level Kansas Center
Sun 08:25:38 PM 39.2592 -92.7703 82° East 524 603 37,000  Level Kansas Center
Sun 08:26:39 PM 39.2847 -92.5503 81° East 523 602 37,000  Level Kansas Center
Sun 08:27:42 PM 39.3047 -92.3692 82° East 520 598 37,000  Level Kansas Center
Sun 08:28:43 PM 39.3253 -92.1858 82° East 520 598 37,000  Level Kansas Center
Sun 08:29:46 PM 39.3461 -92.0017 82° East 522 601 37,000  Level Kansas Center
Sun 08:30:47 PM 39.3656 -91.8181 82° East 524 603 37,000  Level Kansas Center
Sun 08:31:47 PM 39.3861 -91.6272 82° East 520 598 37,000  Level Kansas Center
Sun 08:32:51 PM 39.4214 -91.4478 76° East 518 596 37,000  Level Kansas Center
Sun 08:33:51 PM 39.4711 -91.2319 73° East 518 596 37,000  Level Kansas Center
Sun 08:34:55 PM 39.5122 -91.0531 73° East 518 596 37,000  Level Kansas Center
Sun 08:35:57 PM 39.5544 -90.8719 73° East 522 601 37,000  Level Kansas Center
Sun 08:36:58 PM 39.5967 -90.6928 73° East 520 598 37,000  Level Kansas Center
Sun 08:37:58 PM 39.6381 -90.5125 73° East 521 600 37,000  Level Kansas Center
Sun 08:39:02 PM 39.6817 -90.3331 72° East 520 598 37,000  Level Kansas Center
Sun 08:40:03 PM 39.7242 -90.1519 73° East 523 602 37,000  Level Kansas Center
Sun 08:41:03 PM 39.7453 -89.9561 82° East 524 603 37,000  Level Kansas Center
Sun 08:42:04 PM 39.7514 -89.7681 88° East 525 604 37,000  Level Kansas Center
Sun 08:43:08 PM 39.7575 -89.5817 87° East 522 601 37,000  Level Kansas Center
Sun 08:44:09 PM 39.7644 -89.3556 88° East 524 603 37,000  Level Kansas Center
Sun 08:45:10 PM 39.7692 -89.1669 88° East 525 604 37,000  Level Kansas Center
Sun 08:46:10 PM 39.7744 -88.9806 88° East 521 600 37,000  Level Kansas Center
Sun 08:47:13 PM 39.7794 -88.7939 88° East 519 597 37,000  Level Kansas Center
Sun 08:48:15 PM 39.7839 -88.6072 88° East 519 597 37,000  Level Kansas Center
Sun 08:49:17 PM 39.7897 -88.4211 88° East 517 595 37,000  Level Kansas Center
Sun 08:50:17 PM 39.7936 -88.2006 89° East 520 598 37,000  Level Kansas Center
Sun 08:51:01 PM 39.7947 -88.0619 89° East 519 597 37,000  Level Indianapolis Center
Sun 08:52:03 PM 39.7983 -87.8747 89° East 519 597 37,000  Level Indianapolis Center
Sun 08:53:05 PM 39.8011 -87.6881 89° East 517 595 37,000  Level Indianapolis Center
Sun 08:54:06 PM 39.8039 -87.5022 89° East 515 593 37,000  Level Indianapolis Center
Sun 08:55:08 PM 39.8064 -87.3172 89° East 514 592 37,000  Level Indianapolis Center
Sun 08:56:09 PM 39.8089 -87.1333 89° East 510 587 37,000  Level Indianapolis Center
Sun 08:57:11 PM 39.8103 -86.9486 89° East 511 588 37,000  Level Indianapolis Center
Sun 08:58:12 PM 39.8125 -86.7633 89° East 513 590 37,000  Level Indianapolis Center
Sun 08:59:14 PM 39.8144 -86.5406 89° East 513 590 37,000  Level Indianapolis Center
Sun 09:00:16 PM 39.8164 -86.3722 89° East 512 589 37,000  Level Indianapolis Center
Sun 09:01:17 PM 39.8294 -86.1550 85° East 520 598 37,000  Level Indianapolis Center
Sun 09:02:19 PM 39.8397 -85.9678 86° East 516 594 37,000  Level Indianapolis Center
Sun 09:03:20 PM 39.8500 -85.7822 86° East 515 593 37,000  Level Indianapolis Center
Sun 09:04:22 PM 39.8600 -85.5947 86° East 518 596 37,000  Level Indianapolis Center
Sun 09:05:23 PM 39.8694 -85.4100 86° East 514 592 37,000  Level Indianapolis Center
Sun 09:06:25 PM 39.8792 -85.2250 86° East 514 592 37,000  Level Indianapolis Center
Sun 09:07:26 PM 39.8883 -85.0397 86° East 514 592 37,000 -49 Level Indianapolis Center
Sun 09:08:27 PM 39.8981 -84.8361 86° East 515 593 36,900  Descending Indianapolis Center
Sun 09:09:29 PM 39.9067 -84.6486 87° East 514 592 37,000 49 Climbing Indianapolis Center
Sun 09:10:30 PM 39.9158 -84.4606 86° East 515 593 37,000  Level Indianapolis Center
Sun 09:11:32 PM 39.9233 -84.2722 87° East 516 594 37,000  Level Indianapolis Center
Sun 09:12:33 PM 39.9306 -84.0831 87° East 518 596 37,000  Level Indianapolis Center
Sun 09:13:34 PM 39.9383 -83.8933 87° East 519 597 37,000  Level Indianapolis Center
Sun 09:14:36 PM 39.9456 -83.7022 87° East 521 600 37,000  Level Indianapolis Center
Sun 09:15:37 PM 39.9536 -83.5128 87° East 523 602 37,000  Level Indianapolis Center
Sun 09:16:39 PM 39.9606 -83.3094 87° East 527 606 37,000 -49 Level Indianapolis Center
Sun 09:17:40 PM 39.9658 -83.1172 88° East 525 604 36,900 -829 Descending Indianapolis Center
Sun 09:18:42 PM 39.9653 -82.9261 90° East 522 601 35,300 -976 Descending Indianapolis Center
Sun 09:19:43 PM 39.9594 -82.7364 92° East 520 598 34,900 -148 Descending Indianapolis Center
Sun 09:20:44 PM 39.9544 -82.5472 92° East 518 596 35,000 49 Climbing Indianapolis Center
Sun 09:21:46 PM 39.9492 -82.3581 92° East 518 596 35,000  Level Indianapolis Center
Sun 09:22:47 PM 39.9439 -82.1681 92° East 521 600 35,000 -146 Level Indianapolis Center
Sun 09:23:49 PM 39.9378 -81.9450 92° East 522 601 34,700 -976 Descending Indianapolis Center
Sun 09:24:50 PM 39.9306 -81.7558 93° East 520 598 33,000 -885 Descending Indianapolis Center
Sun 09:25:51 PM 39.9244 -81.5669 92° East 519 597 32,900  Descending Indianapolis Center
Sun 09:26:53 PM 39.9178 -81.3975 93° East 516 594 33,000 49 Climbing Indianapolis Center
Sun 09:27:54 PM 39.9114 -81.2125 93° East 511 588 33,000  Level Indianapolis Center
Sun 09:28:55 PM 39.9042 -81.0297 93° East 506 582 33,000  Level Indianapolis Center
Sun 09:29:57 PM 39.8972 -80.8489 93° East 500 575 33,000  Level Indianapolis Center
Sun 09:30:58 PM 39.8875 -80.6297 93° East 502 578 33,000  Level Indianapolis Center
Sun 09:31:59 PM 39.8794 -80.4469 93° East 504 580 33,000  Level Indianapolis Center
Sun 09:33:01 PM 39.8703 -80.2650 94° East 503 579 33,000  Level Indianapolis Center
Sun 09:34:08 PM 39.8639 -80.0747 92° East 497 572 33,000  Level Cleveland Center
Sun 09:35:08 PM 39.8358 -79.9017 102° East 497 572 33,000 -876 Level Cleveland Center
Sun 09:37:06 PM 39.7611 -79.5514 105° East 497 572 30,400 -1,542 Descending Washington Center
Sun 09:38:07 PM 39.7250 -79.3822 105° East 497 572 28,400 -1,918 Descending Washington Center
Sun 09:39:08 PM 39.6906 -79.2158 105° East 490 564 26,500 -1,820 Descending Washington Center
Sun 09:40:09 PM 39.6556 -79.0578 106° East 475 547 24,700 -2,118 Descending Washington Center
Sun 09:41:07 PM 39.6167 -78.8808 106° East 460 529 22,300 -2,136 Descending Washington Center
Sun 09:42:07 PM 39.5833 -78.7283 106° East 460 529 20,500 -1,537 Descending Washington Center
Sun 09:43:08 PM 39.5517 -78.5844 106° East 441 507 19,200 -1,289 Descending Washington Center
Sun 09:44:08 PM 39.5217 -78.4461 106° East 418 481 17,900 -1,250 Descending Washington Center
Sun 09:45:08 PM 39.4892 -78.3103 107° East 399 459 16,700 -1,190 Descending Washington Center
Sun 09:46:09 PM 39.4589 -78.1775 106° East 388 447 15,500 -850 Descending Washington Center
Sun 09:47:08 PM 39.4322 -78.0500 105° East 377 434 15,000 -605 Descending Washington Center
Sun 09:48:08 PM 39.4267 -77.9183 93° East 371 427 14,300 -756 Descending Washington Center
Sun 09:49:07 PM 39.4333 -77.7869 86° East 365 420 13,500 -756 Descending Washington Center
Sun 09:50:07 PM 39.4356 -77.6606 89° East 365 420 12,800 -750 Descending Washington Center
Sun 09:51:07 PM 39.4397 -77.5317 88° East 360 414 12,000 -800 Descending Washington Center
Sun 09:52:07 PM 39.4417 -77.4056 89° East 355 409 11,200 -711 Descending Washington Center
Sun 09:52:23 PM 39.4500 -77.3667 74° East 335 386 11,100 -146 Descending Potomac TRACON
Sun 09:53:29 PM 39.4667 -77.2333 81° East 351 404 11,000 -143 Descending Potomac TRACON
Sun 09:54:29 PM 39.4500 -77.1167 100° East 349 402 10,800 -550 Descending Potomac TRACON
Sun 09:55:29 PM 39.4500 -77.0000 90° East 316 364 9,900 -1,150 Descending Potomac TRACON
Sun 09:56:29 PM 39.4333 -76.9000 102° East 306 352 8,500 -1,571 Descending Potomac TRACON
Sun 09:57:35 PM 39.4000 -76.7833 110° East 308 354 6,600 -1,559 Descending Potomac TRACON
Sun 09:58:36 PM 39.3333 -76.7000 136° Southeast 294 338 5,200 -793 Descending Potomac TRACON
Sun 09:59:36 PM 39.2833 -76.6333 134° Southeast 273 314 5,000 -421 Descending Potomac TRACON
Sun 10:00:30 PM 39.2333 -76.5833 142° Southeast 248 285 4,400 -800 Descending Potomac TRACON
Sun 10:01:36 PM 39.1833 -76.5667 166° South 220 253 3,400 -909 Descending Potomac TRACON

Login

Don't have an account? Register now (free) for customized features, flight alerts, and more!